createdAt,value
2019-03-15T00:01:40.754Z,4.91
2019-03-15T00:04:10.352Z,4.87
2019-03-15T00:06:39.840Z,4.91
2019-03-15T00:09:09.846Z,4.82
2019-03-15T00:11:39.364Z,4.93
2019-03-15T00:17:09.610Z,4.05
2019-03-15T00:19:39.117Z,5.07
2019-03-15T00:22:08.633Z,4.96
2019-03-15T00:24:38.186Z,4.83
2019-03-15T00:27:07.661Z,4.96
2019-03-15T00:29:37.340Z,5.03
2019-03-15T00:32:07.748Z,5.09
2019-03-15T00:34:37.262Z,5.12
2019-03-15T00:37:06.776Z,5.11
2019-03-15T00:39:37.513Z,5.03
2019-03-15T00:42:07.014Z,5.05
2019-03-15T00:44:36.527Z,5.00
2019-03-15T00:47:06.121Z,5.01
2019-03-15T00:49:35.652Z,4.78
2019-03-15T00:52:05.168Z,4.68
2019-03-15T00:54:34.668Z,4.90
2019-03-15T00:57:05.120Z,4.67
2019-03-15T00:59:34.703Z,4.71
2019-03-15T01:02:04.177Z,4.73
2019-03-15T01:04:33.688Z,4.78
2019-03-15T01:07:03.172Z,4.72
2019-03-15T01:09:33.236Z,4.68
2019-03-15T01:12:02.723Z,4.61
2019-03-15T01:14:32.227Z,4.59
2019-03-15T01:17:01.715Z,4.65
2019-03-15T01:19:31.235Z,4.65
2019-03-15T01:22:01.422Z,4.72
2019-03-15T01:24:30.898Z,4.70
2019-03-15T01:27:00.402Z,4.70
2019-03-15T01:29:29.901Z,4.75
2019-03-15T01:31:59.425Z,4.73
2019-03-15T01:34:29.702Z,4.75
2019-03-15T01:36:59.186Z,4.79
2019-03-15T01:39:28.691Z,4.68
2019-03-15T01:41:58.178Z,4.72
2019-03-15T01:44:27.661Z,4.85
2019-03-15T01:46:57.818Z,4.66
2019-03-15T01:49:27.321Z,4.72
2019-03-15T01:51:56.815Z,4.66
2019-03-15T01:54:26.323Z,4.68
2019-03-15T01:56:55.806Z,4.76
2019-03-15T01:59:25.962Z,4.60
2019-03-15T02:01:55.457Z,4.75
2019-03-15T02:04:24.946Z,4.61
2019-03-15T02:06:54.429Z,4.64
2019-03-15T02:09:23.920Z,4.61
2019-03-15T02:11:53.424Z,4.63
2019-03-15T02:14:22.902Z,4.74
2019-03-15T02:16:52.416Z,4.73
2019-03-15T02:19:21.896Z,4.75
2019-03-15T02:21:51.381Z,4.84
2019-03-15T02:24:22.127Z,4.78
2019-03-15T02:26:51.615Z,4.74
2019-03-15T02:29:21.180Z,4.71
2019-03-15T02:31:50.691Z,4.78
2019-03-15T02:34:20.177Z,4.73
2019-03-15T02:36:50.632Z,4.70
2019-03-15T02:39:20.206Z,4.67
2019-03-15T02:41:49.705Z,4.61
2019-03-15T02:44:19.199Z,4.67
2019-03-15T02:46:48.694Z,4.58
2019-03-15T02:49:18.228Z,4.65
2019-03-15T02:51:48.017Z,4.58
2019-03-15T02:54:17.484Z,4.62
2019-03-15T02:56:46.983Z,4.62
2019-03-15T02:59:16.493Z,4.65
2019-03-15T03:02:27.688Z,4.55
2019-03-15T03:04:57.235Z,3.75
2019-03-15T03:07:26.746Z,4.53
2019-03-15T03:09:56.262Z,4.42
2019-03-15T03:12:25.750Z,4.41
2019-03-15T03:14:55.486Z,4.36
2019-03-15T03:17:24.978Z,4.28
2019-03-15T03:19:54.509Z,4.32
2019-03-15T03:22:24.051Z,4.36
2019-03-15T03:24:53.575Z,4.39
2019-03-15T03:27:23.087Z,4.32
2019-03-15T03:29:53.073Z,4.40
2019-03-15T03:32:22.607Z,4.38
2019-03-15T03:34:52.150Z,4.34
2019-03-15T03:40:22.463Z,4.06
2019-03-15T03:42:52.021Z,4.42
2019-03-15T03:45:23.355Z,4.43
2019-03-15T03:47:52.738Z,4.40
2019-03-15T03:50:22.231Z,4.38
2019-03-15T03:52:51.737Z,4.41
2019-03-15T03:55:40.584Z,4.48
2019-03-15T03:58:10.068Z,4.05
2019-03-15T04:00:39.575Z,4.45
2019-03-15T04:03:09.138Z,4.39
2019-03-15T04:05:38.717Z,4.50
2019-03-15T04:08:08.241Z,4.48
2019-03-15T04:10:37.720Z,4.54
2019-03-15T04:13:07.277Z,4.64
2019-03-15T04:15:36.927Z,4.60
2019-03-15T04:18:06.784Z,4.62
2019-03-15T04:20:55.632Z,4.58
2019-03-15T04:23:25.126Z,4.66
2019-03-15T04:25:54.633Z,4.67
2019-03-15T04:28:24.184Z,4.62
2019-03-15T04:30:53.714Z,4.72
2019-03-15T04:33:23.220Z,4.71
2019-03-15T04:35:52.723Z,4.75
2019-03-15T04:38:22.197Z,4.74
2019-03-15T04:40:51.679Z,4.72
2019-03-15T04:43:21.184Z,4.82
2019-03-15T04:45:50.668Z,4.82
2019-03-15T04:48:20.212Z,4.83
2019-03-15T04:50:49.694Z,4.79
2019-03-15T04:53:38.539Z,4.85
2019-03-15T04:56:08.079Z,4.55
2019-03-15T04:58:37.577Z,4.77
2019-03-15T05:01:07.076Z,4.90
2019-03-15T05:03:36.607Z,4.82
2019-03-15T05:06:06.167Z,4.89
2019-03-15T05:08:35.741Z,4.81
2019-03-15T05:11:24.599Z,4.86
2019-03-15T05:14:06.749Z,4.85
2019-03-15T05:16:36.261Z,4.85
2019-03-15T05:19:05.782Z,4.92
2019-03-15T05:21:35.290Z,4.89
2019-03-15T05:24:04.793Z,4.89
2019-03-15T05:26:34.300Z,4.94
2019-03-15T05:29:03.821Z,4.97
2019-03-15T05:31:33.312Z,4.96
2019-03-15T05:34:02.805Z,4.94
2019-03-15T05:36:32.279Z,4.92
2019-03-15T05:39:01.811Z,4.89
2019-03-15T05:41:31.322Z,4.89
2019-03-15T05:44:00.814Z,4.97
2019-03-15T05:46:30.333Z,4.92
2019-03-15T05:48:59.821Z,4.98
2019-03-15T05:51:29.333Z,5.02
2019-03-15T05:53:58.838Z,4.97
2019-03-15T05:56:28.326Z,4.99
2019-03-15T05:58:58.899Z,5.05
2019-03-15T06:01:28.365Z,4.99
2019-03-15T06:03:57.869Z,5.04
2019-03-15T06:06:27.395Z,4.96
2019-03-15T06:09:35.275Z,4.98
2019-03-15T06:15:08.449Z,5.01
2019-03-15T06:17:57.319Z,5.05
2019-03-15T06:20:37.742Z,5.15
2019-03-15T06:23:07.239Z,5.18
2019-03-15T06:25:37.735Z,5.25
2019-03-15T06:28:07.223Z,5.19
2019-03-15T06:30:36.748Z,5.22
2019-03-15T06:33:06.314Z,5.29
2019-03-15T06:35:35.769Z,5.36
2019-03-15T06:38:05.946Z,5.37
2019-03-15T06:43:14.506Z,5.44
2019-03-15T06:45:44.888Z,5.39
2019-03-15T06:48:14.393Z,5.31
2019-03-15T06:51:03.222Z,5.26
2019-03-15T06:53:32.726Z,5.34
2019-03-15T06:56:21.564Z,5.24
2019-03-15T06:58:51.176Z,5.27
2019-03-15T07:01:20.650Z,5.22
2019-03-15T07:03:50.183Z,5.28
2019-03-15T07:06:19.691Z,5.23
2019-03-15T07:08:49.198Z,5.25
2019-03-15T07:11:18.759Z,5.16
2019-03-15T07:13:48.726Z,5.18
2019-03-15T07:16:38.338Z,5.14
2019-03-15T07:19:08.900Z,5.22
2019-03-15T07:21:38.387Z,5.22
2019-03-15T07:24:07.903Z,5.33
2019-03-15T07:26:37.378Z,5.33
2019-03-15T07:29:06.881Z,5.25
2019-03-15T07:31:36.370Z,5.26
2019-03-15T07:34:05.927Z,5.33
2019-03-15T07:36:37.275Z,5.34
2019-03-15T07:39:07.767Z,5.29
2019-03-15T07:41:37.253Z,5.27
2019-03-15T07:44:06.831Z,5.27
2019-03-15T07:46:36.981Z,5.20
2019-03-15T07:49:06.492Z,5.06
2019-03-15T07:51:36.062Z,4.97
2019-03-15T07:54:05.636Z,4.94
2019-03-15T07:56:35.122Z,4.89
2019-03-15T07:59:05.322Z,4.85
2019-03-15T08:01:34.803Z,4.80
2019-03-15T08:04:16.314Z,4.68
2019-03-15T08:06:36.396Z,4.49
2019-03-15T08:09:07.603Z,4.47
2019-03-15T08:11:37.120Z,4.51
2019-03-15T08:14:06.626Z,4.45
2019-03-15T08:16:36.173Z,4.42
2019-03-15T08:19:05.680Z,4.46
2019-03-15T08:21:35.175Z,4.42
2019-03-15T08:24:04.997Z,4.46
2019-03-15T08:26:34.478Z,4.44
2019-03-15T08:29:03.982Z,4.33
2019-03-15T08:31:33.469Z,4.25
2019-03-15T08:34:03.004Z,4.21
2019-03-15T08:36:32.490Z,4.13
2019-03-15T08:39:01.997Z,4.11
2019-03-15T08:41:31.482Z,4.19
2019-03-15T08:44:01.001Z,4.09
2019-03-15T08:46:30.488Z,4.11
2019-03-15T08:48:59.994Z,4.01
2019-03-15T08:51:29.520Z,4.01
2019-03-15T08:53:59.045Z,4.07
2019-03-15T08:56:28.530Z,4.11
2019-03-15T08:58:58.063Z,4.14
2019-03-15T09:01:27.550Z,4.16
2019-03-15T09:03:57.034Z,4.20
2019-03-15T09:06:26.591Z,4.23
2019-03-15T09:08:56.158Z,4.19
2019-03-15T09:11:25.638Z,4.22
2019-03-15T09:13:55.147Z,4.19
2019-03-15T09:16:25.538Z,4.23
2019-03-15T09:19:33.407Z,4.31
2019-03-15T09:22:22.272Z,4.07
2019-03-15T09:24:52.507Z,4.40
2019-03-15T09:27:22.048Z,4.41
2019-03-15T09:29:51.560Z,4.31
2019-03-15T09:32:21.138Z,4.43
2019-03-15T09:34:50.649Z,4.42
2019-03-15T09:37:20.653Z,4.36
2019-03-15T09:39:50.161Z,4.39
2019-03-15T09:42:38.999Z,4.55
2019-03-15T09:45:21.685Z,4.46
2019-03-15T09:47:51.192Z,4.46
2019-03-15T09:50:30.799Z,4.65
2019-03-15T09:52:51.903Z,4.68
2019-03-15T09:55:32.431Z,4.72
2019-03-15T09:57:52.638Z,4.83
2019-03-15T10:00:22.371Z,4.84
2019-03-15T10:02:51.858Z,4.82
2019-03-15T10:05:22.392Z,4.79
2019-03-15T10:07:51.877Z,4.74
2019-03-15T10:10:21.412Z,4.62
2019-03-15T10:13:04.683Z,4.64
2019-03-15T10:15:22.268Z,4.60
2019-03-15T10:17:51.752Z,4.67
2019-03-15T10:20:21.260Z,4.78
2019-03-15T10:23:04.602Z,4.74
2019-03-15T10:25:22.050Z,5.00
2019-03-15T10:27:51.527Z,4.97
2019-03-15T10:30:21.898Z,5.06
2019-03-15T10:32:51.387Z,4.90
2019-03-15T10:35:20.954Z,5.24
2019-03-15T10:38:09.831Z,5.32
2019-03-15T10:40:39.319Z,5.38
2019-03-15T10:43:08.806Z,5.25
2019-03-15T10:45:38.311Z,5.51
2019-03-15T10:48:08.324Z,5.40
2019-03-15T10:50:37.832Z,5.19
2019-03-15T10:53:07.324Z,5.25
2019-03-15T10:55:36.855Z,5.19
2019-03-15T10:58:06.333Z,5.39
2019-03-15T11:00:36.141Z,5.14
2019-03-15T11:03:05.688Z,5.30
2019-03-15T11:05:35.245Z,5.56
2019-03-15T11:08:04.824Z,5.57
2019-03-15T11:10:34.323Z,5.61
2019-03-15T11:13:03.807Z,5.72
2019-03-15T11:15:33.340Z,5.75
2019-03-15T11:18:03.380Z,5.76
2019-03-15T11:20:32.890Z,5.96
2019-03-15T11:23:02.387Z,6.07
2019-03-15T11:25:31.884Z,6.18
2019-03-15T11:28:01.387Z,6.23
2019-03-15T11:30:31.418Z,6.14
2019-03-15T11:33:00.903Z,6.11
2019-03-15T11:35:30.405Z,6.26
2019-03-15T11:37:59.887Z,6.38
2019-03-15T11:40:29.403Z,6.57
2019-03-15T11:42:59.920Z,6.75
2019-03-15T11:45:29.453Z,6.92
2019-03-15T11:48:04.181Z,6.98
2019-03-15T11:50:30.271Z,7.10
2019-03-15T11:52:59.758Z,7.15
2019-03-15T11:55:29.289Z,7.18
2019-03-15T11:57:58.773Z,7.16
2019-03-15T12:00:28.288Z,7.20
2019-03-15T12:02:57.768Z,7.09
2019-03-15T12:05:27.354Z,7.11
2019-03-15T12:07:56.860Z,7.07
2019-03-15T12:10:26.387Z,7.11
2019-03-15T12:12:55.877Z,7.12
2019-03-15T12:15:25.381Z,7.07
2019-03-15T12:17:54.871Z,7.17
2019-03-15T12:20:24.379Z,7.17
2019-03-15T12:22:53.867Z,7.14
2019-03-15T12:28:43.478Z,6.82
2019-03-15T12:31:13.012Z,7.15
2019-03-15T12:33:42.505Z,7.16
2019-03-15T12:36:12.001Z,7.20
2019-03-15T12:38:41.525Z,7.19
2019-03-15T12:41:11.020Z,7.29
2019-03-15T12:43:59.878Z,7.21
2019-03-15T12:46:29.390Z,7.25
2019-03-15T12:48:58.965Z,7.30
2019-03-15T12:51:32.424Z,7.26
2019-03-15T12:57:19.836Z,6.88
2019-03-15T12:59:49.323Z,7.34
2019-03-15T13:02:20.303Z,7.43
2019-03-15T13:04:52.086Z,7.37
2019-03-15T13:07:21.337Z,7.43
2019-03-15T13:09:50.814Z,7.40
2019-03-15T13:12:20.371Z,7.34
2019-03-15T13:14:49.879Z,7.37
2019-03-15T13:17:19.426Z,7.37
2019-03-15T13:19:55.215Z,7.34
2019-03-15T13:22:20.162Z,7.29
2019-03-15T13:24:49.653Z,7.33
2019-03-15T13:27:19.154Z,7.39
2019-03-15T13:29:48.641Z,7.37
2019-03-15T13:32:18.445Z,7.45
2019-03-15T13:34:47.959Z,7.50
2019-03-15T13:37:17.475Z,7.51
2019-03-15T13:39:47.019Z,7.53
2019-03-15T13:42:16.537Z,7.54
2019-03-15T13:44:46.012Z,7.51
2019-03-15T13:47:15.527Z,7.51
2019-03-15T13:49:46.257Z,7.58
2019-03-15T13:52:15.788Z,7.56
2019-03-15T13:54:45.272Z,7.57
2019-03-15T13:57:20.996Z,7.57
2019-03-15T13:59:46.003Z,7.55
2019-03-15T14:02:15.515Z,7.57
2019-03-15T14:04:45.031Z,7.56
2019-03-15T14:07:14.551Z,7.59
2019-03-15T14:10:15.759Z,7.57
2019-03-15T14:12:45.334Z,7.58
2019-03-15T14:15:19.504Z,7.60
2019-03-15T14:17:49.324Z,7.59
2019-03-15T14:20:18.877Z,7.65
2019-03-15T14:22:48.370Z,7.70
2019-03-15T14:25:27.242Z,7.67
2019-03-15T14:27:56.768Z,7.71
2019-03-15T14:30:26.257Z,7.79
2019-03-15T14:32:55.760Z,7.77
2019-03-15T14:35:25.257Z,7.72
2019-03-15T14:37:54.838Z,7.84
2019-03-15T14:40:24.520Z,7.83
2019-03-15T14:42:54.083Z,7.85
2019-03-15T14:45:23.741Z,7.89
2019-03-15T14:47:53.176Z,7.86
2019-03-15T14:50:22.648Z,7.87
2019-03-15T14:52:52.181Z,7.86
2019-03-15T14:55:21.669Z,7.98
2019-03-15T14:57:53.204Z,7.99
2019-03-15T15:00:23.613Z,7.98
2019-03-15T15:02:53.116Z,8.01
2019-03-15T15:05:41.930Z,8.04
2019-03-15T15:08:24.651Z,7.98
2019-03-15T15:14:14.748Z,8.08
2019-03-15T15:16:44.283Z,8.12
2019-03-15T15:19:13.798Z,8.13
2019-03-15T15:21:43.280Z,8.09
2019-03-15T15:24:12.882Z,8.19
2019-03-15T15:26:42.390Z,8.20
2019-03-15T15:29:31.237Z,8.26
2019-03-15T15:32:14.002Z,8.31
2019-03-15T15:34:43.528Z,8.43
2019-03-15T15:37:32.356Z,8.49
2019-03-15T15:40:01.865Z,8.50
2019-03-15T15:42:31.374Z,8.56
2019-03-15T15:45:20.236Z,8.52
2019-03-15T15:48:09.081Z,7.61
2019-03-15T15:50:38.567Z,7.74
2019-03-15T15:53:10.901Z,8.42
2019-03-15T15:55:39.357Z,8.48
2019-03-15T15:58:17.840Z,8.45
2019-03-15T16:00:40.074Z,8.50
2019-03-15T16:03:09.578Z,8.44
2019-03-15T16:05:39.154Z,8.44
2019-03-15T16:08:08.688Z,8.48
2019-03-15T16:10:38.338Z,8.52
2019-03-15T16:13:17.339Z,8.61
2019-03-15T16:15:39.046Z,8.58
2019-03-15T16:18:27.930Z,8.54
2019-03-15T16:21:16.807Z,8.57
2019-03-15T16:24:05.762Z,8.64
2019-03-15T16:26:46.301Z,8.53
2019-03-15T16:29:15.837Z,8.65
2019-03-15T16:31:45.324Z,8.68
2019-03-15T16:34:14.827Z,8.72
2019-03-15T16:36:44.324Z,8.68
2019-03-15T16:39:13.893Z,8.70
2019-03-15T16:41:43.376Z,8.65
2019-03-15T16:44:12.942Z,8.74
2019-03-15T16:46:42.480Z,8.71
2019-03-15T16:49:12.006Z,8.79
2019-03-15T16:51:42.035Z,8.73
2019-03-15T16:54:11.652Z,8.79
2019-03-15T16:56:41.137Z,8.86
2019-03-15T16:59:10.641Z,8.87
2019-03-15T17:01:40.140Z,8.77
2019-03-15T17:04:28.976Z,8.78
2019-03-15T17:07:00.837Z,8.90
2019-03-15T17:09:29.801Z,8.94
2019-03-15T17:11:59.286Z,8.83
2019-03-15T17:14:28.797Z,8.83
2019-03-15T17:16:58.305Z,8.82
2019-03-15T17:19:27.834Z,8.79
2019-03-15T17:21:57.346Z,8.81
2019-03-15T17:24:27.189Z,8.70
2019-03-15T17:26:56.669Z,8.78
2019-03-15T17:29:26.156Z,8.73
2019-03-15T17:31:55.662Z,8.83
2019-03-15T17:34:25.648Z,8.77
2019-03-15T17:37:06.061Z,8.73
2019-03-15T17:39:26.656Z,8.81
2019-03-15T17:41:56.231Z,8.80
2019-03-15T17:44:25.727Z,8.67
2019-03-15T17:46:55.213Z,8.81
2019-03-15T17:49:24.712Z,8.82
2019-03-15T17:51:54.230Z,8.78
2019-03-15T17:54:23.699Z,8.88
2019-03-15T17:56:53.182Z,8.91
2019-03-15T17:59:22.682Z,8.85
2019-03-15T18:01:52.181Z,8.89
2019-03-15T18:04:21.665Z,8.97
2019-03-15T18:06:51.157Z,8.92
2019-03-15T18:09:40.009Z,8.97
2019-03-15T18:12:28.868Z,8.88
2019-03-15T18:14:58.372Z,9.03
2019-03-15T18:17:27.862Z,8.95
2019-03-15T18:19:57.703Z,8.91
2019-03-15T18:22:27.189Z,8.84
2019-03-15T18:24:56.671Z,8.88
2019-03-15T18:27:26.179Z,8.79
2019-03-15T18:29:55.744Z,8.84
2019-03-15T18:32:25.241Z,8.92
2019-03-15T18:34:54.727Z,9.01
2019-03-15T18:37:24.257Z,8.94
2019-03-15T18:39:53.960Z,9.01
2019-03-15T18:42:23.509Z,9.00
2019-03-15T18:44:52.995Z,8.96
2019-03-15T18:47:22.547Z,8.96
2019-03-15T18:49:52.094Z,9.03
2019-03-15T18:52:21.580Z,8.96
2019-03-15T18:54:51.164Z,8.98
2019-03-15T18:57:20.643Z,9.03
2019-03-15T18:59:50.177Z,9.04
2019-03-15T19:02:19.684Z,9.16
2019-03-15T19:04:49.259Z,9.15
2019-03-15T19:07:18.788Z,9.12
2019-03-15T19:09:48.295Z,9.18
2019-03-15T19:12:17.806Z,9.24
2019-03-15T19:14:47.306Z,9.20
2019-03-15T19:17:16.814Z,9.17
2019-03-15T19:19:47.297Z,9.26
2019-03-15T19:22:16.808Z,9.21
2019-03-15T19:24:46.342Z,9.15
2019-03-15T19:27:15.829Z,9.17
2019-03-15T19:29:53.740Z,9.21
2019-03-15T19:32:16.570Z,9.22
2019-03-15T19:38:26.985Z,9.31
2019-03-15T19:40:56.514Z,9.32
2019-03-15T19:43:29.152Z,9.20
2019-03-15T19:45:57.297Z,9.34
2019-03-15T19:48:26.780Z,9.25
2019-03-15T19:50:56.275Z,9.19
2019-03-15T19:53:25.780Z,9.28
2019-03-15T19:55:55.316Z,9.38
2019-03-15T19:58:24.828Z,9.33
2019-03-15T20:00:54.375Z,9.33
2019-03-15T20:03:24.185Z,9.36
2019-03-15T20:05:53.724Z,9.37
2019-03-15T20:08:23.207Z,9.37
2019-03-15T20:10:52.712Z,9.36
2019-03-15T20:13:22.195Z,9.40
2019-03-15T20:15:51.814Z,9.39
2019-03-15T20:18:21.397Z,9.47
2019-03-15T20:20:51.004Z,9.50
2019-03-15T20:23:20.528Z,9.45
2019-03-15T20:25:50.031Z,9.53
2019-03-15T20:28:19.509Z,9.51
2019-03-15T20:30:52.227Z,9.51
2019-03-15T20:33:20.471Z,9.57
2019-03-15T20:35:52.059Z,9.61
2019-03-15T20:38:21.241Z,9.53
2019-03-15T20:40:50.772Z,9.48
2019-03-15T20:43:20.252Z,9.58
2019-03-15T20:45:49.778Z,9.57
2019-03-15T20:48:19.261Z,9.48
2019-03-15T20:50:48.780Z,9.53
2019-03-15T20:53:18.353Z,9.57
2019-03-15T20:55:48.146Z,9.55
2019-03-15T20:58:17.653Z,9.42
2019-03-15T21:00:47.154Z,9.48
2019-03-15T21:03:16.645Z,9.52
2019-03-15T21:05:46.147Z,9.42
2019-03-15T21:08:15.637Z,9.53
2019-03-15T21:10:45.152Z,9.57
2019-03-15T21:13:14.640Z,9.47
2019-03-15T21:15:44.151Z,9.55
2019-03-15T21:18:13.703Z,9.52
2019-03-15T21:20:43.176Z,9.58
2019-03-15T21:23:12.660Z,9.52
2019-03-15T21:25:42.208Z,9.58
2019-03-15T21:28:11.692Z,9.54
2019-03-15T21:30:48.264Z,9.61
2019-03-15T21:33:12.433Z,9.50
2019-03-15T21:35:41.936Z,9.55
2019-03-15T21:38:11.420Z,9.59
2019-03-15T21:40:40.930Z,9.58
2019-03-15T21:43:10.419Z,9.62
2019-03-15T21:45:39.946Z,9.54
2019-03-15T21:48:09.431Z,9.59
2019-03-15T21:50:38.938Z,9.40
2019-03-15T21:53:08.449Z,9.42
2019-03-15T21:55:37.950Z,9.31
2019-03-15T21:58:07.454Z,9.17
2019-03-15T22:00:36.950Z,9.18
2019-03-15T22:03:06.426Z,9.12
2019-03-15T22:05:35.993Z,9.05
2019-03-15T22:08:06.509Z,8.93
2019-03-15T22:10:36.071Z,9.04
2019-03-15T22:13:05.594Z,8.92
2019-03-15T22:15:35.085Z,8.86
2019-03-15T22:18:04.594Z,8.88
2019-03-15T22:20:34.710Z,8.89
2019-03-15T22:23:04.221Z,8.89
2019-03-15T22:26:06.080Z,8.87
2019-03-15T22:28:35.587Z,8.98
2019-03-15T22:31:24.440Z,8.93
2019-03-15T22:34:06.723Z,9.01
2019-03-15T22:36:36.523Z,8.94
2019-03-15T22:39:06.908Z,8.93
2019-03-15T22:41:36.406Z,9.05
2019-03-15T22:44:06.038Z,9.01
2019-03-15T22:46:35.575Z,8.91
2019-03-15T22:49:05.149Z,9.00
2019-03-15T22:51:34.664Z,9.02
2019-03-15T22:54:04.219Z,8.96
2019-03-15T22:56:33.747Z,8.97
2019-03-15T22:59:03.224Z,8.93
2019-03-15T23:01:32.728Z,8.86
2019-03-15T23:04:02.234Z,8.91
2019-03-15T23:06:31.746Z,8.91
2019-03-15T23:09:01.236Z,8.74
2019-03-15T23:11:30.746Z,8.85
2019-03-15T23:14:00.229Z,8.82
2019-03-15T23:16:29.720Z,8.91
2019-03-15T23:18:59.222Z,8.99
2019-03-15T23:21:28.714Z,9.02
2019-03-15T23:23:58.266Z,9.02
2019-03-15T23:26:27.746Z,8.96
2019-03-15T23:28:57.235Z,8.98
2019-03-15T23:31:26.743Z,9.01
2019-03-15T23:33:56.250Z,9.08
2019-03-15T23:36:25.743Z,8.89
2019-03-15T23:38:56.336Z,8.90
2019-03-15T23:41:25.855Z,8.91
2019-03-15T23:43:55.526Z,8.87
2019-03-15T23:46:25.050Z,8.82
2019-03-15T23:48:54.552Z,8.83
2019-03-15T23:51:24.467Z,8.81
2019-03-15T23:53:53.970Z,8.76
2019-03-15T23:56:23.486Z,8.68
2019-03-15T23:58:52.984Z,8.72
